createdAt,value
2019-03-09T03:02:45.736Z,68.00
2019-03-09T03:05:15.438Z,68.50
2019-03-09T03:07:44.557Z,69.30
2019-03-09T03:10:13.672Z,69.70
2019-03-09T03:12:42.872Z,70.60
2019-03-09T03:15:14.522Z,71.30
2019-03-09T03:17:43.632Z,72.60
2019-03-09T03:20:12.804Z,72.20
2019-03-09T03:22:41.915Z,72.30
2019-03-09T03:25:11.043Z,72.70
2019-03-09T03:27:40.154Z,73.10
2019-03-09T03:30:09.277Z,73.40
2019-03-09T03:32:38.401Z,73.60
2019-03-09T03:35:08.411Z,73.80
2019-03-09T03:37:37.534Z,73.80
2019-03-09T03:40:09.092Z,74.20
2019-03-09T03:42:38.224Z,75.30
2019-03-09T03:45:12.419Z,74.90
2019-03-09T03:47:41.570Z,75.20
2019-03-09T03:50:10.688Z,75.70
2019-03-09T03:52:39.809Z,76.50
2019-03-09T03:55:10.085Z,77.20
2019-03-09T03:57:39.192Z,77.70
2019-03-09T04:00:11.580Z,77.40
2019-03-09T04:02:40.692Z,78.40
2019-03-09T04:05:09.820Z,78.30
2019-03-09T04:07:39.401Z,79.20
2019-03-09T04:10:12.051Z,79.20
2019-03-09T04:12:42.041Z,80.10
2019-03-09T04:15:11.530Z,80.30
2019-03-09T04:17:40.783Z,80.60
2019-03-09T04:20:11.768Z,80.90
2019-03-09T04:22:40.937Z,80.80
2019-03-09T04:25:10.098Z,80.70
2019-03-09T04:27:39.246Z,80.90
2019-03-09T04:30:14.835Z,82.40
2019-03-09T04:32:43.956Z,81.20
2019-03-09T04:35:13.308Z,80.90
2019-03-09T04:37:42.423Z,81.80
2019-03-09T04:40:12.995Z,81.40
2019-03-09T04:42:42.107Z,81.00
2019-03-09T04:45:12.085Z,81.60
2019-03-09T04:47:41.211Z,81.90
2019-03-09T04:50:12.850Z,82.20
2019-03-09T04:52:41.969Z,82.00
2019-03-09T04:55:11.111Z,82.80
2019-03-09T04:57:40.230Z,83.80
2019-03-09T05:00:14.572Z,83.50
2019-03-09T05:02:43.695Z,83.10
2019-03-09T05:05:12.888Z,84.30
2019-03-09T05:07:51.371Z,83.60
2019-03-09T05:10:29.311Z,84.30
2019-03-09T05:13:03.371Z,85.40
2019-03-09T05:15:32.484Z,84.60
2019-03-09T05:18:03.811Z,84.00
2019-03-09T05:20:32.939Z,84.50
2019-03-09T05:23:03.795Z,85.10
2019-03-09T05:25:32.918Z,84.80
2019-03-09T05:28:02.358Z,84.00
2019-03-09T05:30:39.624Z,84.20
2019-03-09T05:33:09.720Z,84.40
2019-03-09T05:35:38.847Z,84.20
2019-03-09T05:38:07.968Z,85.20
2019-03-09T05:40:37.092Z,85.30
2019-03-09T05:43:06.242Z,84.20
2019-03-09T05:45:35.411Z,84.20
2019-03-09T05:48:04.646Z,84.50
2019-03-09T05:50:33.778Z,84.90
2019-03-09T05:53:16.075Z,84.40
2019-03-09T05:55:45.202Z,85.60
2019-03-09T05:58:14.318Z,84.70
2019-03-09T06:00:43.811Z,85.40
2019-03-09T06:03:12.944Z,85.90
2019-03-09T06:05:44.959Z,85.20
2019-03-09T06:08:20.794Z,85.10
2019-03-09T06:10:49.918Z,86.30
2019-03-09T06:13:19.060Z,85.60
2019-03-09T06:15:48.493Z,85.20
2019-03-09T06:18:17.608Z,85.30
2019-03-09T06:20:46.735Z,85.70
2019-03-09T06:23:15.854Z,86.00
2019-03-09T06:25:44.960Z,87.00
2019-03-09T06:28:14.092Z,86.70
2019-03-09T06:30:43.214Z,87.20
2019-03-09T06:33:15.038Z,87.00
2019-03-09T06:35:45.099Z,86.80
2019-03-09T06:38:41.639Z,86.90
2019-03-09T06:41:32.623Z,87.00
2019-03-09T06:44:04.329Z,87.50
2019-03-09T06:46:33.502Z,88.10
2019-03-09T06:49:03.212Z,88.00
2019-03-09T06:51:32.318Z,88.60
2019-03-09T06:54:02.730Z,88.40
2019-03-09T06:56:31.842Z,87.80
2019-03-09T06:59:02.771Z,87.70
2019-03-09T07:01:31.898Z,86.70
2019-03-09T07:04:03.116Z,86.80
2019-03-09T07:06:32.260Z,87.80
2019-03-09T07:09:03.147Z,87.70
2019-03-09T07:11:34.067Z,87.40
2019-03-09T07:14:40.736Z,88.20
2019-03-09T07:17:09.868Z,88.10
2019-03-09T07:19:39.950Z,88.10
2019-03-09T07:22:09.079Z,88.20
2019-03-09T07:24:38.187Z,87.90
2019-03-09T07:27:07.331Z,87.70
2019-03-09T07:29:36.442Z,87.20
2019-03-09T07:32:05.551Z,86.40
2019-03-09T07:34:34.767Z,86.00
2019-03-09T07:37:03.900Z,85.50
2019-03-09T07:39:33.036Z,85.80
2019-03-09T07:42:03.440Z,84.40
2019-03-09T07:44:32.704Z,83.30
2019-03-09T07:47:02.966Z,84.00
2019-03-09T07:49:32.131Z,82.60
2019-03-09T07:52:01.253Z,82.30
2019-03-09T07:54:30.380Z,82.50
2019-03-09T07:56:59.494Z,81.80
2019-03-09T07:59:28.607Z,81.60
2019-03-09T08:01:58.711Z,82.30
2019-03-09T08:04:27.819Z,81.10
2019-03-09T08:06:56.971Z,81.50
2019-03-09T08:09:26.079Z,80.90
2019-03-09T08:11:55.576Z,80.40
2019-03-09T08:14:24.703Z,79.40
2019-03-09T08:16:53.903Z,79.30
2019-03-09T08:19:23.019Z,77.70
2019-03-09T08:21:52.154Z,77.20
2019-03-09T08:24:21.267Z,78.80
2019-03-09T08:26:50.380Z,79.30
2019-03-09T08:29:20.172Z,77.30
2019-03-09T08:31:49.276Z,77.10
2019-03-09T08:34:18.407Z,75.80
2019-03-09T08:36:47.540Z,76.30
2019-03-09T08:39:16.664Z,75.70
2019-03-09T08:41:45.826Z,76.40
2019-03-09T08:44:15.013Z,77.60
2019-03-09T08:46:44.144Z,77.40
2019-03-09T08:49:15.269Z,77.40
2019-03-09T08:51:44.380Z,77.70
2019-03-09T08:54:13.506Z,76.40
2019-03-09T08:56:42.689Z,75.00
2019-03-09T08:59:11.828Z,74.50
2019-03-09T09:01:40.999Z,74.30
2019-03-09T09:04:10.151Z,75.00
2019-03-09T09:06:39.282Z,74.20
2019-03-09T09:09:08.427Z,74.60
2019-03-09T09:11:37.625Z,73.70
2019-03-09T09:14:06.735Z,73.50
2019-03-09T09:16:35.875Z,73.40
2019-03-09T09:19:04.995Z,73.20
2019-03-09T09:21:34.124Z,73.30
2019-03-09T09:24:03.259Z,73.40
2019-03-09T09:26:32.379Z,72.30
2019-03-09T09:29:01.852Z,72.70
2019-03-09T09:31:34.072Z,72.70
2019-03-09T09:34:05.000Z,71.50
2019-03-09T09:36:34.662Z,70.40
2019-03-09T09:39:06.847Z,70.60
2019-03-09T09:41:37.583Z,70.20
2019-03-09T09:44:06.742Z,70.40
2019-03-09T09:46:35.858Z,70.10
2019-03-09T09:49:04.983Z,69.60
2019-03-09T09:51:34.687Z,69.40
2019-03-09T09:54:03.811Z,69.30
2019-03-09T09:56:33.707Z,69.30
2019-03-09T09:59:02.824Z,69.20
2019-03-09T10:01:32.051Z,69.20
2019-03-09T10:04:01.672Z,69.00
2019-03-09T10:06:30.879Z,68.40
2019-03-09T10:09:00.011Z,68.90
2019-03-09T10:11:31.354Z,68.00
2019-03-09T10:14:00.491Z,67.40
2019-03-09T10:16:29.817Z,66.70
2019-03-09T10:18:58.959Z,66.60
2019-03-09T10:21:28.082Z,66.60
2019-03-09T10:23:57.231Z,66.80
2019-03-09T10:26:26.773Z,66.10
2019-03-09T10:28:56.079Z,65.80
2019-03-09T10:31:25.195Z,66.20
2019-03-09T10:33:54.327Z,66.20
2019-03-09T10:36:23.443Z,66.30
2019-03-09T10:38:52.570Z,64.90
2019-03-09T10:41:21.693Z,65.50
2019-03-09T10:43:50.827Z,65.60
2019-03-09T10:46:19.951Z,65.20
2019-03-09T10:48:50.192Z,64.10
2019-03-09T10:51:19.371Z,63.80
2019-03-09T10:53:48.784Z,62.40
2019-03-09T10:56:17.906Z,62.30
2019-03-09T10:58:47.040Z,62.40
2019-03-09T11:01:16.159Z,61.80
2019-03-09T11:03:45.278Z,62.10
2019-03-09T11:06:14.411Z,61.80
2019-03-09T11:08:43.526Z,61.10
2019-03-09T11:11:12.667Z,60.30
2019-03-09T11:13:51.200Z,61.00
2019-03-09T11:16:12.619Z,61.80
2019-03-09T11:18:41.758Z,62.20
2019-03-09T11:21:10.950Z,61.40
2019-03-09T11:23:40.104Z,61.80
2019-03-09T11:26:09.394Z,60.90
2019-03-09T11:28:38.519Z,60.50
2019-03-09T11:31:07.639Z,59.80
2019-03-09T11:33:36.782Z,58.40
2019-03-09T11:36:05.971Z,58.90
2019-03-09T11:38:35.188Z,57.70
2019-03-09T11:41:04.307Z,58.30
2019-03-09T11:43:33.444Z,58.90
2019-03-09T11:46:02.568Z,58.70
2019-03-09T11:48:31.688Z,58.10
2019-03-09T11:51:01.327Z,57.60
2019-03-09T11:53:30.447Z,57.10
2019-03-09T11:55:59.567Z,57.90
2019-03-09T11:58:28.699Z,57.20
2019-03-09T12:00:57.852Z,57.30
2019-03-09T12:03:27.639Z,58.00
2019-03-09T12:05:56.758Z,57.10
2019-03-09T12:08:25.904Z,56.80
2019-03-09T12:10:55.111Z,56.40
2019-03-09T12:13:24.229Z,55.30
2019-03-09T12:15:53.349Z,56.10
2019-03-09T12:18:22.479Z,56.50
2019-03-09T12:20:51.615Z,55.00
2019-03-09T12:23:22.299Z,54.10
2019-03-09T12:25:51.478Z,53.20
2019-03-09T12:28:20.623Z,54.60
2019-03-09T12:30:50.655Z,55.10
2019-03-09T12:33:19.902Z,54.70
2019-03-09T12:35:49.095Z,54.10
2019-03-09T12:38:18.215Z,54.20
2019-03-09T12:40:47.347Z,54.50
2019-03-09T12:43:16.465Z,55.20
2019-03-09T12:45:45.606Z,52.90
2019-03-09T12:48:14.714Z,53.40
2019-03-09T12:50:43.851Z,52.40
2019-03-09T12:53:14.220Z,52.60
2019-03-09T12:55:43.587Z,50.70
2019-03-09T12:58:12.715Z,51.40
2019-03-09T13:00:41.837Z,51.80
2019-03-09T13:03:10.971Z,50.00
2019-03-09T13:05:40.106Z,50.30
2019-03-09T13:08:09.235Z,50.30
2019-03-09T13:10:38.379Z,51.40
2019-03-09T13:13:07.504Z,50.20
2019-03-09T13:15:36.631Z,50.50
2019-03-09T13:18:05.766Z,48.80
2019-03-09T13:20:35.975Z,47.50
2019-03-09T13:23:05.120Z,47.00
2019-03-09T13:25:34.235Z,47.00
2019-03-09T13:28:03.357Z,46.80
2019-03-09T13:30:32.482Z,46.40
2019-03-09T13:33:03.907Z,44.80
2019-03-09T13:35:33.039Z,45.00
2019-03-09T13:38:02.391Z,44.60
2019-03-09T13:40:31.528Z,45.00
2019-03-09T13:43:00.647Z,46.40
2019-03-09T13:45:29.904Z,45.90
2019-03-09T13:47:59.114Z,45.70
2019-03-09T13:50:28.254Z,46.20
2019-03-09T13:52:57.426Z,46.80
2019-03-09T13:55:26.567Z,47.30
2019-03-09T13:57:55.788Z,47.90
2019-03-09T14:00:25.091Z,49.60
2019-03-09T14:02:54.221Z,50.50
2019-03-09T14:05:23.347Z,51.90
2019-03-09T14:07:52.471Z,51.00
2019-03-09T14:10:21.607Z,51.40
2019-03-09T14:12:51.306Z,50.60
2019-03-09T14:15:20.439Z,49.90
2019-03-09T14:17:49.560Z,49.60
2019-03-09T14:20:18.687Z,49.40
2019-03-09T14:22:47.819Z,49.00
2019-03-09T14:25:16.940Z,48.90
2019-03-09T14:27:46.074Z,47.70
2019-03-09T14:30:18.168Z,47.90
2019-03-09T14:32:47.299Z,48.10
2019-03-09T14:35:17.395Z,47.50
2019-03-09T14:37:46.547Z,47.30
2019-03-09T14:40:16.204Z,47.60
2019-03-09T14:42:45.350Z,47.60
2019-03-09T14:45:17.332Z,46.70
2019-03-09T14:47:46.522Z,46.80
2019-03-09T14:50:15.715Z,46.40
2019-03-09T14:52:44.856Z,47.20
2019-03-09T14:55:14.144Z,47.80
2019-03-09T14:57:43.446Z,48.70
2019-03-09T15:00:25.871Z,49.00
2019-03-09T15:02:55.004Z,49.50
2019-03-09T15:05:24.129Z,49.40
2019-03-09T15:07:53.255Z,49.10
2019-03-09T15:10:22.387Z,49.70
2019-03-09T15:12:51.507Z,50.30
2019-03-09T15:15:21.001Z,50.70
2019-03-09T15:17:50.142Z,55.90
2019-03-09T15:20:19.263Z,64.60
2019-03-09T15:22:48.452Z,68.10
2019-03-09T15:25:18.627Z,71.00
2019-03-09T15:27:47.816Z,74.10
2019-03-09T15:30:17.992Z,74.60
2019-03-09T15:32:47.115Z,74.60
2019-03-09T15:35:17.882Z,75.20
2019-03-09T15:37:46.997Z,74.90
2019-03-09T15:40:19.606Z,73.20
2019-03-09T15:42:48.836Z,75.30
2019-03-09T15:45:18.904Z,74.50
2019-03-09T15:47:48.027Z,73.70
2019-03-09T15:50:20.420Z,75.00
2019-03-09T15:52:49.548Z,73.90
2019-03-09T15:55:18.778Z,73.50
2019-03-09T15:57:48.593Z,74.40
2019-03-09T16:00:22.709Z,74.40
2019-03-09T16:02:52.381Z,74.00
2019-03-09T16:05:21.517Z,73.90
2019-03-09T16:07:50.636Z,74.40
2019-03-09T16:10:21.008Z,74.50
2019-03-09T16:12:50.223Z,78.10
2019-03-09T16:15:19.352Z,81.20
2019-03-09T16:17:48.488Z,84.40
2019-03-09T16:20:23.124Z,86.00
2019-03-09T16:22:52.530Z,86.00
2019-03-09T16:25:21.651Z,85.00
2019-03-09T16:27:50.791Z,85.00
2019-03-09T16:30:20.882Z,83.40
2019-03-09T16:32:50.000Z,83.10
2019-03-09T16:35:19.141Z,83.20
2019-03-09T16:37:49.491Z,84.30
2019-03-09T16:40:19.955Z,83.70
2019-03-09T16:42:49.092Z,83.80
2019-03-09T16:45:18.203Z,83.10
2019-03-09T16:47:47.325Z,83.10
2019-03-09T16:50:17.513Z,84.10
2019-03-09T16:52:46.711Z,83.80
2019-03-09T16:59:03.401Z,83.00
2019-03-09T17:01:32.568Z,86.40
2019-03-09T17:04:02.799Z,87.50
2019-03-09T17:06:31.916Z,87.80
2019-03-09T17:09:01.413Z,88.20
2019-03-09T17:11:32.168Z,89.20
2019-03-09T17:14:02.780Z,88.50
2019-03-09T17:16:31.911Z,87.20
2019-03-09T17:19:01.038Z,90.00
2019-03-09T17:21:30.360Z,90.30
2019-03-09T17:24:00.464Z,90.10
2019-03-09T17:26:29.697Z,90.50
2019-03-09T17:28:58.816Z,90.20
2019-03-09T17:31:27.952Z,89.80
2019-03-09T17:33:57.081Z,87.70
2019-03-09T17:36:26.220Z,87.70
2019-03-09T17:38:55.340Z,89.60
2019-03-09T17:41:24.458Z,87.90
2019-03-09T17:43:53.593Z,87.10
2019-03-09T17:46:22.728Z,86.90
2019-03-09T17:48:51.868Z,86.80
2019-03-09T17:51:20.980Z,86.20
2019-03-09T17:53:50.121Z,85.30
2019-03-09T17:56:19.244Z,84.70
2019-03-09T17:58:48.384Z,85.00
2019-03-09T18:01:17.504Z,85.20
2019-03-09T18:03:46.623Z,83.50
2019-03-09T18:06:15.756Z,84.10
2019-03-09T18:08:44.950Z,82.90
2019-03-09T18:11:14.096Z,83.50
2019-03-09T18:13:43.221Z,83.70
2019-03-09T18:16:12.386Z,82.70
2019-03-09T18:18:41.483Z,82.00
2019-03-09T18:21:10.604Z,81.60
2019-03-09T18:23:39.831Z,80.50
2019-03-09T18:26:08.968Z,81.00
2019-03-09T18:28:38.108Z,81.40
2019-03-09T18:31:07.221Z,80.50
2019-03-09T18:33:36.394Z,80.50
2019-03-09T18:36:05.525Z,80.80
2019-03-09T18:38:34.670Z,80.10
2019-03-09T18:41:05.097Z,80.00
2019-03-09T18:43:34.485Z,78.60
2019-03-09T18:46:04.988Z,78.90
2019-03-09T18:48:34.123Z,79.60
2019-03-09T18:51:04.548Z,81.20
2019-03-09T18:53:33.686Z,80.40
2019-03-09T18:56:03.812Z,80.10
2019-03-09T18:58:33.312Z,79.40
2019-03-09T19:01:03.802Z,81.90
2019-03-09T19:03:32.984Z,82.90
2019-03-09T19:06:02.120Z,82.40
2019-03-09T19:08:32.333Z,84.40
2019-03-09T19:11:01.465Z,84.40
2019-03-09T19:13:30.580Z,83.90
2019-03-09T19:15:59.699Z,85.50
2019-03-09T19:18:28.842Z,85.30
2019-03-09T19:20:58.017Z,84.20
2019-03-09T19:23:27.137Z,83.50
2019-03-09T19:25:56.276Z,83.10
2019-03-09T19:28:25.395Z,82.90
2019-03-09T19:30:54.548Z,83.90
2019-03-09T19:33:23.660Z,82.80
2019-03-09T19:35:52.776Z,82.30
2019-03-09T19:38:21.919Z,81.40
2019-03-09T19:40:51.049Z,81.50
2019-03-09T19:43:20.182Z,81.00
2019-03-09T19:45:49.309Z,82.10
2019-03-09T19:48:18.436Z,81.50
2019-03-09T19:50:47.568Z,81.10
2019-03-09T19:53:16.709Z,79.40
2019-03-09T19:55:45.896Z,78.70
2019-03-09T19:58:15.011Z,79.40
2019-03-09T20:00:44.161Z,79.00
2019-03-09T20:03:13.290Z,78.50
2019-03-09T20:05:42.404Z,78.00
2019-03-09T20:08:11.536Z,77.80
2019-03-09T20:10:40.652Z,76.20
2019-03-09T20:13:09.798Z,75.90
2019-03-09T20:15:38.908Z,76.00
2019-03-09T20:18:08.044Z,75.70
2019-03-09T20:20:37.167Z,76.10
2019-03-09T20:23:07.255Z,75.60
2019-03-09T20:25:36.425Z,74.80
2019-03-09T20:28:05.544Z,74.40
2019-03-09T20:30:34.689Z,74.60
2019-03-09T20:33:04.871Z,73.70
2019-03-09T20:35:34.008Z,73.80
2019-03-09T20:38:03.699Z,74.60
2019-03-09T20:40:32.884Z,73.60
2019-03-09T20:43:02.672Z,73.00
2019-03-09T20:45:31.788Z,73.30
2019-03-09T20:48:03.125Z,72.80
2019-03-09T20:50:32.233Z,71.70
2019-03-09T20:53:03.136Z,72.20
2019-03-09T20:55:32.256Z,71.80
2019-03-09T20:58:02.680Z,71.40
2019-03-09T21:00:31.793Z,70.80
2019-03-09T21:03:01.861Z,71.80
2019-03-09T21:05:30.988Z,70.90
2019-03-09T21:08:00.128Z,71.20
2019-03-09T21:10:29.348Z,71.40
2019-03-09T21:13:04.349Z,71.60
2019-03-09T21:15:33.464Z,71.70
2019-03-09T21:18:02.592Z,71.70
2019-03-09T21:20:32.697Z,72.00
2019-03-09T21:23:03.505Z,72.20
2019-03-09T21:25:32.678Z,72.20
2019-03-09T21:28:03.773Z,72.40
2019-03-09T21:30:32.952Z,71.90
2019-03-09T21:33:03.843Z,70.70
2019-03-09T21:35:32.986Z,70.70
2019-03-09T21:38:03.896Z,70.60
2019-03-09T21:40:33.008Z,70.90
2019-03-09T21:43:04.154Z,71.70
2019-03-09T21:45:33.275Z,71.70
2019-03-09T21:48:03.967Z,71.70
2019-03-09T21:50:33.074Z,72.10
2019-03-09T21:53:02.453Z,71.80
2019-03-09T21:55:31.595Z,72.00
2019-03-09T21:58:00.733Z,71.90
2019-03-09T22:00:29.868Z,71.80
2019-03-09T22:02:58.984Z,72.60
2019-03-09T22:05:28.116Z,72.00
2019-03-09T22:07:57.232Z,72.20
2019-03-09T22:10:26.364Z,71.40
2019-03-09T22:12:55.500Z,71.70
2019-03-09T22:15:24.638Z,71.30
2019-03-09T22:17:53.762Z,71.60
2019-03-09T22:20:22.881Z,71.40
2019-03-09T22:22:52.083Z,71.70
2019-03-09T22:25:21.221Z,71.40
2019-03-09T22:27:50.352Z,71.60
2019-03-09T22:30:21.105Z,71.70
2019-03-09T22:32:50.295Z,71.60
2019-03-09T22:35:19.457Z,71.40
2019-03-09T22:37:48.591Z,71.50
2019-03-09T22:40:19.631Z,72.20
2019-03-09T22:42:48.816Z,72.40
2019-03-09T22:45:17.935Z,72.60
2019-03-09T22:47:47.056Z,72.50
2019-03-09T22:50:19.448Z,73.10
2019-03-09T22:52:48.567Z,73.50
2019-03-09T22:55:17.711Z,73.20
2019-03-09T22:57:46.819Z,73.70
2019-03-09T23:00:18.621Z,74.00
2019-03-09T23:02:49.358Z,74.60
2019-03-09T23:05:18.495Z,76.20
2019-03-09T23:07:47.637Z,76.60
2019-03-09T23:10:24.721Z,76.50
2019-03-09T23:12:53.916Z,77.10
